Time;durP1;ratioP1;P1;durP2;ratioP2;P2;SDS_P1;SDS_P2;PMS_P1;PMS_P2;Temp;Humidity;BMP_temperature;BMP_pressure;BME280_temperature;BME280_humidity;BME280_pressure;Samples;Min_cycle;Max_cycle;Signal;HPM_P1;HPM_P2
2022/04/08 00:01:25;;;;;;;4.10;1.23;;;10.40;57.60;;;;;;5071611;28;20180;-77
2022/04/08 00:03:52;;;;;;;6.80;1.60;;;10.30;57.50;;;;;;5076048;28;20185;-77
2022/04/08 00:06:18;;;;;;;3.23;1.70;;;10.40;57.90;;;;;;5067034;28;20657;-76
2022/04/08 00:08:45;;;;;;;5.27;1.50;;;10.40;58.10;;;;;;5022164;28;20215;-77
2022/04/08 00:11:12;;;;;;;4.77;1.40;;;10.40;58.30;;;;;;5072950;28;20271;-77
2022/04/08 00:13:37;;;;;;;8.47;1.60;;;10.40;58.60;;;;;;5066900;28;20189;-77
2022/04/08 00:16:04;;;;;;;5.50;1.60;;;10.40;58.80;;;;;;5064531;28;20216;-77
2022/04/08 00:18:30;;;;;;;5.63;1.37;;;10.30;59.10;;;;;;5068097;28;20546;-77
2022/04/08 00:20:59;;;;;;;4.80;1.60;;;10.30;59.30;;;;;;5073117;28;20189;-77
2022/04/08 00:23:25;;;;;;;8.03;1.70;;;10.30;59.60;;;;;;5064750;28;20231;-77
2022/04/08 00:25:51;;;;;;;4.90;1.50;;;10.30;60.00;;;;;;5063390;28;20193;-76
2022/04/08 00:28:17;;;;;;;6.30;1.63;;;10.30;60.10;;;;;;5068017;28;20526;-77
2022/04/08 00:30:43;;;;;;;6.03;1.40;;;10.20;60.30;;;;;;5050623;28;20315;-77
2022/04/08 00:33:08;;;;;;;5.90;1.70;;;10.20;60.60;;;;;;5067421;28;20216;-77
2022/04/08 00:35:34;;;;;;;8.27;1.70;;;10.20;60.90;;;;;;5068272;28;20296;-77
2022/04/08 00:38:00;;;;;;;4.37;1.50;;;10.20;60.60;;;;;;5065274;28;20181;-77
2022/04/08 00:40:26;;;;;;;5.13;1.40;;;10.20;60.90;;;;;;5069761;28;20181;-77
2022/04/08 00:42:51;;;;;;;6.10;1.50;;;10.20;60.90;;;;;;5063602;28;20216;-77
2022/04/08 00:45:17;;;;;;;5.37;1.47;;;10.20;60.80;;;;;;5077505;28;20843;-77
2022/04/08 00:47:44;;;;;;;5.37;1.53;;;10.20;61.00;;;;;;5078178;28;20591;-77
2022/04/08 00:50:13;;;;;;;6.30;1.90;;;10.20;61.50;;;;;;5068450;28;20181;-77
2022/04/08 00:52:41;;;;;;;5.40;1.63;;;10.20;61.50;;;;;;5068279;28;20184;-76
2022/04/08 00:55:08;;;;;;;6.57;1.60;;;10.20;61.80;;;;;;5034309;28;20225;-77
2022/04/08 00:57:34;;;;;;;6.97;1.80;;;10.20;62.00;;;;;;5051546;28;20221;-77
2022/04/08 01:00:08;;;;;;;5.07;1.53;;;10.10;62.20;;;;;;5066563;28;20213;-77
2022/04/08 01:02:34;;;;;;;7.57;1.73;;;10.10;61.90;;;;;;5080896;28;20208;-77
2022/04/08 01:05:00;;;;;;;5.80;1.40;;;10.10;61.80;;;;;;5060352;28;20205;-76
2022/04/08 01:07:27;;;;;;;5.00;1.50;;;10.10;62.10;;;;;;5067975;28;20177;-77
2022/04/08 01:09:54;;;;;;;2.90;1.20;;;10.10;62.30;;;;;;5055676;28;20186;-77
2022/04/08 01:12:19;;;;;;;8.40;1.57;;;10.10;62.30;;;;;;5071448;28;20222;-77
2022/04/08 01:14:45;;;;;;;5.20;1.30;;;10.10;62.70;;;;;;5071463;28;20205;-77
2022/04/08 01:17:11;;;;;;;8.10;1.73;;;10.10;62.80;;;;;;5078811;28;20176;-77
2022/04/08 01:19:37;;;;;;;6.63;1.70;;;10.00;63.00;;;;;;5070731;28;20616;-77
2022/04/08 01:22:03;;;;;;;5.37;1.63;;;10.00;63.40;;;;;;5070677;28;20192;-77
2022/04/08 01:24:34;;;;;;;5.63;1.50;;;10.00;63.40;;;;;;5076123;28;20280;-76
2022/04/08 01:27:02;;;;;;;4.57;1.43;;;10.00;63.90;;;;;;5069343;28;20665;-77
2022/04/08 01:29:28;;;;;;;4.20;1.60;;;9.90;63.80;;;;;;5074367;28;20190;-77
2022/04/08 01:31:54;;;;;;;5.47;1.37;;;9.90;63.90;;;;;;5071239;28;20185;-76
2022/04/08 01:34:20;;;;;;;6.30;1.77;;;9.90;64.30;;;;;;5069624;28;21044;-76
2022/04/08 01:36:45;;;;;;;5.93;1.20;;;9.80;63.80;;;;;;5073979;28;20234;-77
2022/04/08 01:39:11;;;;;;;5.10;1.30;;;9.80;64.20;;;;;;5048331;28;20241;-77
2022/04/08 01:41:37;;;;;;;4.47;1.40;;;9.80;63.80;;;;;;5061960;28;20291;-77
2022/04/08 01:44:03;;;;;;;6.57;1.90;;;9.80;64.00;;;;;;5073243;28;20190;-77
2022/04/08 01:46:28;;;;;;;7.30;1.40;;;9.80;63.80;;;;;;5066638;28;20188;-76
2022/04/08 01:48:55;;;;;;;6.33;1.50;;;9.80;64.20;;;;;;5076533;28;20183;-77
2022/04/08 01:51:24;;;;;;;6.77;1.70;;;9.80;64.20;;;;;;5065842;28;20189;-77
2022/04/08 01:53:50;;;;;;;6.00;1.67;;;9.80;64.30;;;;;;5063460;28;20576;-77
2022/04/08 01:56:16;;;;;;;5.90;1.40;;;9.70;65.00;;;;;;5071582;28;20279;-77
2022/04/08 01:58:42;;;;;;;6.57;1.60;;;9.70;65.40;;;;;;5085137;28;20251;-77
2022/04/08 02:01:07;;;;;;;5.30;1.77;;;9.70;65.30;;;;;;5069697;28;20184;-76
2022/04/08 02:03:33;;;;;;;3.30;1.40;;;9.70;65.50;;;;;;5055844;28;20216;-76
2022/04/08 02:06:00;;;;;;;6.53;1.50;;;9.60;65.60;;;;;;5069148;28;20290;-76
2022/04/08 02:08:26;;;;;;;4.90;1.77;;;9.60;65.80;;;;;;5057670;28;20230;-77
2022/04/08 02:10:55;;;;;;;9.73;2.10;;;9.60;66.10;;;;;;5067184;28;20174;-77
2022/04/08 02:13:20;;;;;;;8.23;2.20;;;9.60;66.10;;;;;;5056545;28;20562;-77
2022/04/08 02:15:46;;;;;;;5.60;1.80;;;9.70;66.10;;;;;;5063646;28;20209;-77
2022/04/08 02:18:13;;;;;;;7.63;1.80;;;9.60;66.60;;;;;;5063406;28;20189;-77
2022/04/08 02:20:39;;;;;;;7.30;1.97;;;9.60;66.80;;;;;;5067169;28;20178;-77
2022/04/08 02:23:06;;;;;;;7.20;1.90;;;9.70;66.80;;;;;;5052502;28;20295;-76
2022/04/08 02:25:32;;;;;;;6.90;1.80;;;9.70;67.10;;;;;;5070133;28;20232;-77
2022/04/08 02:27:58;;;;;;;7.53;1.93;;;9.70;67.50;;;;;;5069422;28;20183;-76
2022/04/08 02:30:24;;;;;;;5.90;1.60;;;9.70;67.80;;;;;;5076164;28;20242;-76
2022/04/08 02:32:50;;;;;;;8.33;2.07;;;9.60;67.90;;;;;;5058662;28;20559;-77
2022/04/08 02:35:16;;;;;;;7.30;1.90;;;9.60;67.90;;;;;;5068036;28;20201;-77
2022/04/08 02:37:42;;;;;;;5.60;1.70;;;9.60;68.30;;;;;;5065252;28;20185;-77
2022/04/08 02:40:08;;;;;;;8.63;2.17;;;9.50;68.90;;;;;;5064474;28;20196;-76
2022/04/08 02:42:34;;;;;;;8.43;2.07;;;9.50;70.00;;;;;;5065322;28;20205;-77
2022/04/08 02:45:00;;;;;;;7.37;2.17;;;9.50;69.70;;;;;;5049078;28;20550;-77
2022/04/08 02:47:26;;;;;;;7.47;1.77;;;9.50;70.30;;;;;;5063776;28;20181;-77
2022/04/08 02:49:51;;;;;;;8.03;2.03;;;9.50;70.10;;;;;;5062346;28;20236;-77
2022/04/08 02:52:18;;;;;;;8.33;2.20;;;9.50;70.60;;;;;;5063226;28;20673;-77
2022/04/08 02:54:43;;;;;;;9.27;2.00;;;9.50;70.90;;;;;;5064559;28;20200;-77
2022/04/08 02:57:09;;;;;;;7.03;1.80;;;9.40;70.90;;;;;;5052396;28;20232;-77
2022/04/08 02:59:35;;;;;;;5.53;2.03;;;9.40;71.00;;;;;;5067178;28;20200;-77
2022/04/08 03:02:01;;;;;;;7.83;2.20;;;9.40;71.20;;;;;;5066714;28;20280;-77
2022/04/08 03:04:26;;;;;;;4.83;1.70;;;9.40;71.50;;;;;;5072067;28;20196;-77
2022/04/08 03:06:54;;;;;;;8.13;1.90;;;9.40;71.30;;;;;;5070755;28;20637;-76
2022/04/08 03:09:21;;;;;;;6.77;2.30;;;9.40;71.70;;;;;;5055347;28;20213;-77
2022/04/08 03:11:47;;;;;;;8.07;1.97;;;9.40;71.90;;;;;;5056362;28;20190;-76
2022/04/08 03:14:13;;;;;;;7.97;2.40;;;9.40;72.30;;;;;;5063403;28;20177;-77
2022/04/08 03:16:39;;;;;;;7.73;2.03;;;9.50;72.30;;;;;;5048278;28;20172;-76
2022/04/08 03:19:05;;;;;;;4.97;1.80;;;9.40;72.50;;;;;;5066979;28;20522;-76
2022/04/08 03:21:31;;;;;;;8.37;1.80;;;9.40;72.50;;;;;;5060781;28;20184;-76
2022/04/08 03:23:58;;;;;;;6.20;1.80;;;9.30;72.90;;;;;;5068625;28;21483;-76
2022/04/08 03:26:24;;;;;;;9.37;1.80;;;9.40;73.20;;;;;;5068961;28;20242;-77
2022/04/08 03:28:50;;;;;;;6.33;1.80;;;9.40;73.30;;;;;;5069362;28;20192;-76
2022/04/08 03:31:15;;;;;;;6.60;1.80;;;9.40;73.20;;;;;;5051605;28;20684;-76
2022/04/08 03:33:41;;;;;;;7.40;1.80;;;9.40;73.10;;;;;;5057721;28;20188;-77
2022/04/08 03:36:07;;;;;;;7.73;1.93;;;9.40;73.50;;;;;;5070508;28;20207;-77
2022/04/08 03:38:34;;;;;;;7.03;1.60;;;9.40;73.20;;;;;;5065183;28;20535;-77
2022/04/08 03:41:00;;;;;;;6.90;2.00;;;9.30;73.30;;;;;;5068943;28;20312;-76
2022/04/08 03:43:27;;;;;;;6.60;1.83;;;9.30;73.60;;;;;;5048770;28;20645;-77
2022/04/08 03:45:53;;;;;;;8.80;1.90;;;9.30;73.50;;;;;;5064192;28;20273;-76
2022/04/08 03:48:19;;;;;;;7.60;1.63;;;9.30;73.60;;;;;;5075147;28;20211;-76
2022/04/08 03:50:44;;;;;;;5.33;1.60;;;9.20;73.70;;;;;;5070461;28;20189;-76
2022/04/08 03:53:12;;;;;;;6.57;1.77;;;9.20;74.20;;;;;;5064769;28;20269;-77
2022/04/08 03:55:39;;;;;;;5.50;1.93;;;9.20;74.10;;;;;;5067045;28;20263;-76
2022/04/08 03:58:05;;;;;;;7.63;1.80;;;9.20;74.00;;;;;;5066939;28;20246;-77
2022/04/08 04:00:31;;;;;;;7.27;1.80;;;9.20;74.60;;;;;;5077150;28;20188;-77
2022/04/08 04:02:56;;;;;;;9.77;1.73;;;9.20;74.00;;;;;;5070726;28;20254;-77
2022/04/08 04:05:22;;;;;;;8.63;2.00;;;9.20;74.30;;;;;;5057890;28;20198;-77
2022/04/08 04:07:48;;;;;;;8.43;2.27;;;9.20;74.50;;;;;;5060114;28;20644;-76
2022/04/08 04:10:14;;;;;;;6.83;2.13;;;9.20;74.70;;;;;;5042237;28;20186;-76
2022/04/08 04:12:42;;;;;;;9.60;2.17;;;9.20;75.00;;;;;;5071251;28;20228;-76
2022/04/08 04:15:09;;;;;;;7.03;2.07;;;9.20;75.20;;;;;;5062424;28;20599;-77
2022/04/08 04:17:34;;;;;;;6.43;2.00;;;9.20;75.50;;;;;;5063475;28;20272;-76
2022/04/08 04:20:00;;;;;;;8.13;2.27;;;9.20;75.40;;;;;;5060326;28;20259;-76
2022/04/08 04:22:26;;;;;;;8.20;2.13;;;9.20;75.60;;;;;;5066986;28;20238;-77
2022/04/08 04:24:53;;;;;;;5.63;1.87;;;9.20;75.80;;;;;;5060982;28;20620;-76
2022/04/08 04:27:18;;;;;;;11.13;2.20;;;9.20;75.90;;;;;;5061626;28;20177;-76
2022/04/08 04:29:45;;;;;;;8.40;1.80;;;9.20;76.00;;;;;;5065777;28;20212;-76
2022/04/08 04:32:10;;;;;;;7.13;2.00;;;9.20;76.00;;;;;;5072368;28;20181;-76
2022/04/08 04:34:38;;;;;;;6.37;2.00;;;9.20;75.90;;;;;;5044652;28;20286;-76
2022/04/08 04:37:08;;;;;;;9.73;2.07;;;9.20;76.10;;;;;;5061676;28;20224;-76
2022/04/08 04:39:35;;;;;;;6.47;1.80;;;9.10;76.70;;;;;;5066951;28;20749;-76
2022/04/08 04:42:00;;;;;;;9.40;2.30;;;9.10;76.60;;;;;;5066234;28;20227;-76
2022/04/08 04:44:27;;;;;;;6.90;2.30;;;9.20;76.40;;;;;;5067361;28;20193;-76
2022/04/08 04:46:54;;;;;;;6.50;1.93;;;9.10;76.60;;;;;;5072889;28;20215;-76
2022/04/08 04:49:21;;;;;;;6.00;1.80;;;9.20;77.00;;;;;;5066777;28;20173;-76
2022/04/08 04:51:48;;;;;;;6.63;2.00;;;9.20;77.00;;;;;;5065907;28;20744;-76
2022/04/08 04:54:14;;;;;;;10.63;1.97;;;9.20;76.90;;;;;;5075018;28;20173;-79
2022/04/08 04:56:40;;;;;;;5.03;1.73;;;9.20;77.10;;;;;;5051810;28;20256;-80
2022/04/08 04:59:06;;;;;;;8.47;2.47;;;9.20;77.50;;;;;;5065844;28;20186;-78
2022/04/08 05:01:31;;;;;;;6.10;2.10;;;9.20;77.40;;;;;;5076773;28;20205;-80
2022/04/08 05:03:57;;;;;;;7.17;1.97;;;9.20;77.60;;;;;;5063883;28;20196;-78
2022/04/08 05:06:24;;;;;;;6.47;2.10;;;9.20;78.40;;;;;;5074682;28;20201;-79
2022/04/08 05:08:50;;;;;;;5.30;1.90;;;;;;;;;;5049525;28;20188;-78
2022/04/08 05:11:16;;;;;;;7.50;1.83;;;;;;;;;;5067888;28;20182;-78
2022/04/08 05:13:43;;;;;;;8.13;2.00;;;;;;;;;;5069620;28;20176;-78
2022/04/08 05:16:09;;;;;;;8.53;2.20;;;;;;;;;;5070310;28;20871;-78
2022/04/08 05:18:37;;;;;;;9.13;2.60;;;;;;;;;;5074000;28;20216;-78
2022/04/08 05:21:03;;;;;;;8.47;2.00;;;;;;;;;;5052518;28;20192;-78
2022/04/08 05:23:29;;;;;;;6.93;1.90;;;;;;;;;;5057054;28;20214;-78
2022/04/08 05:25:56;;;;;;;5.83;1.93;;;;;;;;;;5066477;28;20606;-79
2022/04/08 05:28:23;;;;;;;5.57;2.17;;;;;;;;;;5059002;28;20212;-79
2022/04/08 05:30:49;;;;;;;11.27;2.10;;;;;;;;;;5079483;28;20230;-79
2022/04/08 05:33:16;;;;;;;6.47;2.10;;;;;;;;;;5056995;28;20195;-78
2022/04/08 05:35:43;;;;;;;5.53;1.70;;;;;;;;;;5082533;28;20774;-79
2022/04/08 05:38:09;;;;;;;8.53;2.20;;;;;;;;;;5053808;28;20194;-79
2022/04/08 05:40:35;;;;;;;6.07;2.07;;;;;;;;;;5073345;28;20559;-78
2022/04/08 05:43:01;;;;;;;6.23;2.00;;;;;;;;;;5050004;28;20206;-78
2022/04/08 05:45:28;;;;;;;6.73;1.93;;;;;;;;;;5068957;28;20688;-78
2022/04/08 05:47:54;;;;;;;5.70;2.07;;;;;;;;;;5074327;28;20180;-77
2022/04/08 05:50:20;;;;;;;8.03;2.27;;;;;;;;;;5077673;28;20177;-78
2022/04/08 05:52:52;;;;;;;9.13;2.47;;;;;;;;;;5066126;28;20276;-78
2022/04/08 05:55:18;;;;;;;8.90;2.60;;;;;;;;;;5078794;28;20691;-78
2022/04/08 05:57:45;;;;;;;10.50;2.70;;;;;;;;;;5050987;28;20193;-78
2022/04/08 06:00:13;;;;;;;8.40;2.20;;;;;;;;;;5073416;28;20197;-78
2022/04/08 06:02:40;;;;;;;7.07;2.13;;;;;;;;;;5059382;28;20201;-79
2022/04/08 06:05:07;;;;;;;11.00;2.80;;;;;;;;;;5042700;28;20281;-78
2022/04/08 06:07:33;;;;;;;8.63;2.67;;;;;;;;;;5075067;28;20208;-78
2022/04/08 06:10:00;;;;;;;7.70;3.30;;;;;;;;;;5068710;28;20174;-78
2022/04/08 06:12:27;;;;;;;7.20;2.53;;;;;;;;;;5063105;28;20562;-78
2022/04/08 06:14:54;;;;;;;9.37;2.73;;;;;;;;;;5067290;28;20205;-78
2022/04/08 06:17:20;;;;;;;11.70;2.70;;;;;;;;;;5072743;28;20177;-79
2022/04/08 06:19:49;;;;;;;9.50;2.30;;;;;;;;;;5039095;28;20799;-78
2022/04/08 06:22:15;;;;;;;11.23;2.27;;;;;;;;;;5057674;28;20221;-78
2022/04/08 06:24:41;;;;;;;10.00;2.17;;;;;;;;;;5036983;28;20198;-78
2022/04/08 06:27:07;;;;;;;6.50;2.23;;;;;;;;;;5049497;28;20526;-78
2022/04/08 06:29:33;;;;;;;8.83;2.10;;;;;;;;;;5070621;28;20644;-79
2022/04/08 06:32:00;;;;;;;6.33;2.00;;;;;;;;;;5049402;28;20181;-78
2022/04/08 06:34:26;;;;;;;9.37;1.93;;;;;;;;;;5061006;28;20212;-78
2022/04/08 06:36:52;;;;;;;11.30;2.50;;;;;;;;;;5048718;28;20209;-78
2022/04/08 06:39:19;;;;;;;10.43;2.30;;;;;;;;;;5041574;28;20189;-79
2022/04/08 06:41:45;;;;;;;7.40;1.90;;;;;;;;;;5025846;28;20206;-79
2022/04/08 06:44:11;;;;;;;8.33;2.20;;;;;;;;;;5047186;28;20177;-79
2022/04/08 06:46:37;;;;;;;8.27;2.03;;;;;;;;;;5059499;28;20268;-78
2022/04/08 06:49:04;;;;;;;7.07;2.00;;;;;;;;;;5076541;28;20201;-78
2022/04/08 06:51:30;;;;;;;5.90;2.07;;;;;;;;;;5068005;28;20594;-78
2022/04/08 06:53:57;;;;;;;8.50;2.40;;;;;;;;;;5068657;28;20220;-79
2022/04/08 06:56:23;;;;;;;5.97;2.40;;;;;;;;;;5066428;28;20190;-79
2022/04/08 06:58:50;;;;;;;5.97;2.13;;;;;;;;;;5066877;28;20184;-78
2022/04/08 07:01:16;;;;;;;5.63;2.10;;;;;;;;;;5055720;28;20181;-78
2022/04/08 07:03:43;;;;;;;5.20;2.20;;;;;;;;;;5069289;28;20350;-78
2022/04/08 07:06:09;;;;;;;6.97;2.17;;;;;;;;;;5072722;28;20276;-78
2022/04/08 07:08:35;;;;;;;8.43;2.50;;;;;;;;;;5067056;28;20272;-78
2022/04/08 07:11:01;;;;;;;8.87;2.00;;;;;;;;;;5069427;28;20266;-78
2022/04/08 07:13:28;;;;;;;8.60;2.43;;;;;;;;;;5022076;28;20189;-78
2022/04/08 07:15:54;;;;;;;6.90;2.03;;;;;;;;;;5070928;28;20205;-78
2022/04/08 07:18:21;;;;;;;7.10;2.03;;;;;;;;;;5071598;28;20200;-78
2022/04/08 07:20:47;;;;;;;6.63;2.20;;;;;;;;;;5071990;28;20170;-78
2022/04/08 07:23:14;;;;;;;8.63;2.40;;;;;;;;;;5055313;28;20711;-79
2022/04/08 07:25:40;;;;;;;5.87;1.80;;;;;;;;;;5076830;28;20205;-79
2022/04/08 07:28:06;;;;;;;8.83;2.20;;;;;;;;;;5073862;28;20260;-78
2022/04/08 07:30:33;;;;;;;6.43;2.50;;;;;;;;;;5052769;28;20694;-80
2022/04/08 07:33:01;;;;;;;7.43;2.30;;;;;;;;;;5053781;28;20189;-77
2022/04/08 07:35:28;;;;;;;7.37;2.53;;;;;;;;;;5056719;28;20214;-79
2022/04/08 07:37:54;;;;;;;7.87;2.70;;;;;;;;;;5072764;28;20184;-77
2022/04/08 07:40:21;;;;;;;9.90;3.47;;;;;;;;;;5074316;28;20189;-78
2022/04/08 07:42:47;;;;;;;6.67;2.53;;;;;;;;;;5040589;28;20303;-78
2022/04/08 07:45:13;;;;;;;9.60;2.23;;;;;;;;;;5054793;28;20201;-78
2022/04/08 07:47:40;;;;;;;9.93;3.53;;;;;;;;;;5053555;28;20174;-78
2022/04/08 07:50:10;;;;;;;6.40;2.20;;;;;;;;;;5071715;28;20173;-79
2022/04/08 07:52:37;;;;;;;6.97;2.23;;;;;;;;;;5070870;28;20185;-78
2022/04/08 07:55:03;;;;;;;7.53;2.23;;;;;;;;;;5071477;28;20227;-78
2022/04/08 07:57:30;;;;;;;6.07;2.00;;;;;;;;;;5076252;28;20256;-78
2022/04/08 07:59:56;;;;;;;9.00;2.10;;;;;;;;;;5071419;28;20196;-77
2022/04/08 08:02:23;;;;;;;8.03;2.13;;;;;;;;;;5072709;28;20285;-78
2022/04/08 08:04:49;;;;;;;8.20;2.00;;;;;;;;;;5071131;28;20564;-79
2022/04/08 08:07:15;;;;;;;7.87;2.43;;;;;;;;;;5070829;28;20197;-77
2022/04/08 08:09:41;;;;;;;5.07;1.90;;;;;;;;;;5070855;28;20630;-78
2022/04/08 08:12:08;;;;;;;8.30;2.10;;;;;;;;;;5052445;28;20177;-78
2022/04/08 08:14:35;;;;;;;5.57;2.00;;;;;;;;;;5053317;28;20278;-77
2022/04/08 08:17:02;;;;;;;9.50;2.77;;;;;;;;;;5045706;28;20169;-77
2022/04/08 08:19:28;;;;;;;5.83;1.80;;;;;;;;;;5075807;28;20204;-78
2022/04/08 08:21:54;;;;;;;7.00;2.10;;;;;;;;;;5075284;28;20221;-79
2022/04/08 08:24:21;;;;;;;9.57;2.17;;;;;;;;;;5075108;28;20628;-78
2022/04/08 08:26:47;;;;;;;8.20;2.20;;;;;;;;;;5025452;28;20193;-78
2022/04/08 08:29:13;;;;;;;7.80;2.13;;;;;;;;;;5076189;28;20191;-77
2022/04/08 08:31:39;;;;;;;7.73;2.27;;;;;;;;;;5076943;28;20181;-78
2022/04/08 08:34:05;;;;;;;9.03;2.37;;;;;;;;;;5073205;28;20203;-78
2022/04/08 08:36:31;;;;;;;10.63;2.37;;;;;;;;;;5074215;28;20179;-79
2022/04/08 08:39:00;;;;;;;6.03;2.10;;;;;;;;;;5056803;28;20178;-78
2022/04/08 08:41:26;;;;;;;9.30;2.07;;;;;;;;;;5074306;28;20174;-79
2022/04/08 08:43:54;;;;;;;7.77;2.03;;;;;;;;;;5039543;28;20209;-78
2022/04/08 08:46:21;;;;;;;7.43;2.00;;;;;;;;;;5075283;28;20295;-80
2022/04/08 08:48:50;;;;;;;8.03;2.17;;;;;;;;;;5074848;28;20184;-79
2022/04/08 08:51:18;;;;;;;10.80;2.17;;;;;;;;;;5071282;28;20216;-79
2022/04/08 08:53:44;;;;;;;6.43;2.03;;;;;;;;;;5070991;28;20208;-79
2022/04/08 08:56:10;;;;;;;8.57;1.90;;;;;;;;;;5054700;28;20205;-80
2022/04/08 08:58:37;;;;;;;8.57;2.47;;;;;;;;;;5066861;28;20225;-79
2022/04/08 09:01:09;;;;;;;5.97;2.03;;;;;;;;;;5069653;28;20177;-79
2022/04/08 09:03:36;;;;;;;8.70;1.97;;;;;;;;;;5070020;28;20225;-80
2022/04/08 09:06:06;;;;;;;7.60;2.30;;;;;;;;;;5052560;28;20212;-80
2022/04/08 09:08:33;;;;;;;9.00;2.17;;;;;;;;;;5071291;28;20181;-79
2022/04/08 09:11:00;;;;;;;7.57;2.20;;;;;;;;;;5072153;28;20184;-79
2022/04/08 09:13:28;;;;;;;7.33;2.00;;;;;;;;;;5051702;28;20201;-79
2022/04/08 09:15:58;;;;;;;8.33;2.40;;;;;;;;;;5070763;28;20201;-79
2022/04/08 09:18:29;;;;;;;7.50;2.20;;;;;;;;;;5069867;28;20497;-80
2022/04/08 09:20:57;;;;;;;4.93;1.83;;;;;;;;;;5070053;28;20308;-79
2022/04/08 09:23:23;;;;;;;5.27;2.00;;;;;;;;;;5050838;28;20262;-79
2022/04/08 09:25:50;;;;;;;6.97;2.20;;;;;;;;;;5070257;28;20226;-79
2022/04/08 09:28:17;;;;;;;10.87;2.40;;;;;;;;;;5070087;28;20261;-79
2022/04/08 09:30:49;;;;;;;10.50;2.43;;;;;;;;;;5064784;28;20296;-80
2022/04/08 09:33:18;;;;;;;9.20;2.30;;;;;;;;;;5068341;28;20192;-79
2022/04/08 09:35:45;;;;;;;8.03;2.17;;;;;;;;;;5053448;28;20224;-79
2022/04/08 09:38:11;;;;;;;8.07;2.37;;;;;;;;;;5073847;28;20186;-79
2022/04/08 09:40:38;;;;;;;8.27;2.47;;;;;;;;;;5038971;28;20327;-79
2022/04/08 09:43:05;;;;;;;10.17;2.37;;;;;;;;;;5073077;28;20246;-79
2022/04/08 09:45:31;;;;;;;6.47;2.37;;;;;;;;;;5065134;28;20205;-79
2022/04/08 09:47:58;;;;;;;8.60;2.40;;;;;;;;;;5055563;28;20657;-79
2022/04/08 09:50:25;;;;;;;5.63;2.10;;;;;;;;;;5070361;28;20173;-79
2022/04/08 09:52:51;;;;;;;7.50;2.30;;;;;;;;;;5083950;28;20188;-79
2022/04/08 09:55:17;;;;;;;7.50;2.50;;;;;;;;;;5057250;28;20197;-79
2022/04/08 09:57:46;;;;;;;6.60;2.47;;;;;;;;;;5071665;28;20177;-79
2022/04/08 10:00:12;;;;;;;3.77;1.63;;;;;;;;;;5067436;28;20166;-79
2022/04/08 10:02:42;;;;;;;4.50;2.03;;;;;;;;;;5073155;28;20266;-79
2022/04/08 10:05:09;;;;;;;5.17;1.97;;;;;;;;;;5055214;28;20209;-79
2022/04/08 10:07:36;;;;;;;7.63;2.40;;;;;;;;;;5056793;28;20185;-79
2022/04/08 10:10:02;;;;;;;6.97;2.43;;;;;;;;;;5055743;28;20209;-79
2022/04/08 10:12:35;;;;;;;7.30;2.20;;;;;;;;;;5054971;28;20271;-79
2022/04/08 10:15:01;;;;;;;6.00;2.23;;;;;;;;;;5056696;28;20230;-79
2022/04/08 10:17:27;;;;;;;4.77;2.23;;;;;;;;;;5073564;28;20641;-79
2022/04/08 10:19:54;;;;;;;8.17;2.50;;;;;;;;;;5073382;28;20256;-79
2022/04/08 10:22:21;;;;;;;8.33;2.53;;;;;;;;;;5072537;28;20254;-79
2022/04/08 10:24:54;;;;;;;7.43;2.10;;;;;;;;;;5078231;28;20276;-79
2022/04/08 10:27:29;;;;;;;5.13;2.37;;;;;;;;;;5060914;28;20268;-79
2022/04/08 10:29:55;;;;;;;4.67;2.40;;;;;;;;;;5072785;28;20176;-79
2022/04/08 10:32:22;;;;;;;8.60;2.40;;;;;;;;;;5056183;28;20205;-79
2022/04/08 10:34:49;;;;;;;7.20;2.30;;;;;;;;;;5070166;28;20232;-79
2022/04/08 10:37:15;;;;;;;4.47;1.87;;;;;;;;;;5070030;28;20192;-80
2022/04/08 10:39:42;;;;;;;5.97;2.00;;;;;;;;;;5052778;28;20177;-79
2022/04/08 10:42:19;;;;;;;6.03;1.93;;;;;;;;;;5063047;28;20243;-79
2022/04/08 10:44:46;;;;;;;3.57;2.00;;;;;;;;;;5061600;28;20209;-80
2022/04/08 10:47:16;;;;;;;4.10;2.13;;;;;;;;;;5072852;28;20649;-78
2022/04/08 10:49:48;;;;;;;4.00;1.80;;;;;;;;;;5055535;28;20198;-79
2022/04/08 10:52:37;;;;;;;3.97;1.87;;;;;;;;;;5056440;28;20176;-79
2022/04/08 10:55:06;;;;;;;4.53;2.20;;;;;;;;;;5090537;28;20205;-78
2022/04/08 10:57:39;;;;;;;6.77;2.57;;;;;;;;;;5073020;28;20195;-79
2022/04/08 11:00:11;;;;;;;5.73;2.50;;;;;;;;;;5068264;28;20268;-78
2022/04/08 11:02:37;;;;;;;6.00;2.60;;;;;;;;;;5071581;28;20220;-79
2022/04/08 11:05:05;;;;;;;4.20;2.00;;;;;;;;;;5078172;28;20344;-77
2022/04/08 11:07:34;;;;;;;4.37;1.93;;;;;;;;;;5070650;28;20170;-79
2022/04/08 11:10:01;;;;;;;2.57;1.80;;;;;;;;;;5074405;28;20179;-79
2022/04/08 11:12:29;;;;;;;4.47;2.20;;;;;;;;;;5072158;28;20538;-78
2022/04/08 11:14:58;;;;;;;4.37;2.10;;;;;;;;;;5072292;28;20700;-78
2022/04/08 11:17:33;;;;;;;4.73;1.90;;;;;;;;;;5071811;28;20170;-78
2022/04/08 11:19:59;;;;;;;4.20;2.13;;;;;;;;;;5073287;28;20192;-78
2022/04/08 11:22:26;;;;;;;5.40;2.40;;;;;;;;;;5057940;28;20209;-82
2022/04/08 11:24:56;;;;;;;4.03;2.17;;;;;;;;;;5070684;28;20205;-78
2022/04/08 11:27:22;;;;;;;3.20;2.27;;;;;;;;;;5058100;28;20263;-78
2022/04/08 11:29:49;;;;;;;3.30;1.80;;;;;;;;;;5071677;28;20181;-78
2022/04/08 11:32:15;;;;;;;3.07;1.67;;;;;;;;;;5071036;28;20964;-78
2022/04/08 11:34:41;;;;;;;2.97;1.73;;;;;;;;;;5058613;28;20213;-83
2022/04/08 11:37:07;;;;;;;4.67;1.50;;;;;;;;;;5070725;28;20238;-77
2022/04/08 11:39:33;;;;;;;2.77;1.37;;;;;;;;;;5044293;28;20181;-79
2022/04/08 11:42:02;;;;;;;1.40;1.20;;;;;;;;;;5066084;28;20185;-78
2022/04/08 11:44:28;;;;;;;1.70;1.20;;;;;;;;;;5067737;28;20189;-77
2022/04/08 11:47:04;;;;;;;2.00;1.13;;;;;;;;;;5071856;28;20169;-77
2022/04/08 11:49:30;;;;;;;2.10;1.30;;;;;;;;;;5063647;28;20185;-77
2022/04/08 11:52:00;;;;;;;2.53;1.20;;;;;;;;;;5069275;28;20672;-79
2022/04/08 11:54:27;;;;;;;1.60;1.20;;;;;;;;;;5050847;28;20207;-77
2022/04/08 11:56:53;;;;;;;2.03;1.13;;;;;;;;;;5069900;28;20184;-78
2022/04/08 11:59:20;;;;;;;2.87;1.20;;;;;;;;;;5061407;28;20222;-78
2022/04/08 12:01:47;;;;;;;2.33;1.17;;;;;;;;;;5071662;28;20613;-78
2022/04/08 12:04:13;;;;;;;2.33;1.00;;;;;;;;;;5069314;28;20173;-78
2022/04/08 12:06:43;;;;;;;2.07;1.20;;;;;;;;;;5083719;28;20180;-78
2022/04/08 12:09:10;;;;;;;2.57;1.20;;;;;;;;;;5073070;28;20245;-78
2022/04/08 12:11:38;;;;;;;2.67;1.93;;;;;;;;;;5073101;28;20647;-78
2022/04/08 12:14:09;;;;;;;2.87;1.60;;;;;;;;;;5074603;28;20512;-78
2022/04/08 12:16:39;;;;;;;1.90;1.50;;;;;;;;;;5075506;28;20263;-78
2022/04/08 12:19:06;;;;;;;2.00;1.67;;;;;;;;;;5070391;28;20193;-78
2022/04/08 12:21:33;;;;;;;3.10;1.80;;;;;;;;;;5069429;28;20259;-79
2022/04/08 12:24:00;;;;;;;1.37;1.27;;;;;;;;;;5051920;28;20202;-79
2022/04/08 12:26:34;;;;;;;1.60;1.50;;;;;;;;;;5056032;28;20211;-78
2022/04/08 12:29:10;;;;;;;3.67;2.70;;;;;;;;;;5060127;28;20174;-78
2022/04/08 12:31:50;;;;;;;4.23;2.67;;;;;;;;;;5052864;28;20706;-78
2022/04/08 12:34:17;;;;;;;2.07;1.53;;;;;;;;;;5062306;28;20192;-82
2022/04/08 12:36:43;;;;;;;2.13;1.50;;;;;;;;;;5077807;28;20182;-82
2022/04/08 12:39:10;;;;;;;1.73;1.20;;;;;;;;;;5094339;28;20209;-81
2022/04/08 12:41:40;;;;;;;1.37;1.10;;;;;;;;;;5042773;28;20193;-81
2022/04/08 12:44:06;;;;;;;2.27;1.37;;;;;;;;;;5047987;28;20235;-82
2022/04/08 12:46:32;;;;;;;2.33;1.20;;;;;;;;;;5081446;28;20181;-83
2022/04/08 12:48:58;;;;;;;1.53;1.43;;;;;;;;;;5076514;28;20211;-82
2022/04/08 12:51:24;;;;;;;1.30;1.20;;;;;;;;;;5035494;28;20186;-83
2022/04/08 12:53:50;;;;;;;2.90;0.93;;;;;;;;;;5075818;28;20204;-83
2022/04/08 12:56:17;;;;;;;1.57;1.00;;;;;;;;;;5043395;28;20201;-83
2022/04/08 12:58:43;;;;;;;1.43;1.30;;;;;;;;;;5058870;28;20211;-83
2022/04/08 13:01:09;;;;;;;1.20;1.00;;;;;;;;;;5056640;28;20185;-80
2022/04/08 13:03:37;;;;;;;1.00;0.90;;;;;;;;;;5080336;28;20205;-80
2022/04/08 13:06:03;;;;;;;1.30;1.00;;;;;;;;;;5054177;28;20758;-79
2022/04/08 13:08:30;;;;;;;2.10;1.20;;;;;;;;;;5056816;28;20221;-78
2022/04/08 13:10:57;;;;;;;0.80;0.80;;;;;;;;;;5056594;28;20173;-80
2022/04/08 13:13:23;;;;;;;1.20;1.10;;;;;;;;;;5074627;28;20196;-80
2022/04/08 13:15:49;;;;;;;1.40;1.20;;;;;;;;;;5067657;28;20353;-79
2022/04/08 13:18:15;;;;;;;1.47;1.10;;;;;;;;;;5069850;28;20228;-79
2022/04/08 13:20:43;;;;;;;1.93;1.20;;;;;;;;;;5053876;28;20177;-80
2022/04/08 13:23:09;;;;;;;1.70;1.40;;;;;;;;;;5062018;28;20211;-79
2022/04/08 13:25:36;;;;;;;2.73;1.53;;;;;;;;;;5089005;28;20193;-79
2022/04/08 13:28:03;;;;;;;1.47;1.37;;;;;;;;;;5086970;28;20170;-79
2022/04/08 13:30:29;;;;;;;2.17;1.40;;;;;;;;;;5063108;28;20289;-80
2022/04/08 13:32:55;;;;;;;1.70;1.50;;;;;;;;;;5084044;28;20803;-81
2022/04/08 13:35:21;;;;;;;1.63;1.23;;;;;;;;;;5058598;28;20292;-81
2022/04/08 13:37:48;;;;;;;1.10;0.90;;;;;;;;;;5040676;28;20189;-80
2022/04/08 13:40:14;;;;;;;1.93;1.10;;;;;;;;;;5036984;28;20557;-80
2022/04/08 13:42:41;;;;;;;1.40;1.00;;;;;;;;;;5080127;28;20254;-80
2022/04/08 13:45:07;;;;;;;1.10;1.00;;;;;;;;;;5077654;28;20564;-79
2022/04/08 13:47:34;;;;;;;0.87;0.87;;;;;;;;;;5056870;28;20260;-79
2022/04/08 13:50:00;;;;;;;0.90;0.83;;;;;;;;;;5073374;28;20692;-80
2022/04/08 13:52:28;;;;;;;0.87;0.87;;;;;;;;;;5081019;28;20192;-80
2022/04/08 13:54:54;;;;;;;1.70;1.10;;;;;;;;;;5075704;28;20756;-80
2022/04/08 13:57:21;;;;;;;1.37;1.00;;;;;;;;;;5043284;28;20191;-80